AVA9402 SKPS-SKBO
Flight info
| Callsign | AVA9402 |
|---|---|
| Flight time | 0h 48m |
| Altitude | 32000 |
| Route | TITGU2A TITGU DCT ESARO DCT GIR GIR5E |
| Aircraft | A320/M-SDE3FGHIRWY/LB1 |
Departure
| Time | 2026-05-07 12:45 |
|---|---|
| Airport | Antonio Nariño Airport (SKPS) |
Arrival
| Time | 2026-05-07 13:33 |
|---|---|
| Airport | El Dorado International Airport (SKBO) |
| Time | Latitude | Longitude | Altitude | Speed | Heading |
|---|---|---|---|---|---|
| 2026-05-07 12:17 | 1.39574 | -77.28991 | 5908 ft | 0 kts | 105° |
| 2026-05-07 12:34 | 1.39577 | -77.29000 | 5908 ft | 4 kts | 104° |
| 2026-05-07 12:34 | 1.39583 | -77.29026 | 5908 ft | 4 kts | 102° |
| 2026-05-07 12:34 | 1.39588 | -77.29052 | 5908 ft | 4 kts | 102° |
| 2026-05-07 12:35 | 1.39593 | -77.29073 | 5908 ft | 4 kts | 106° |
| 2026-05-07 12:35 | 1.39603 | -77.29098 | 5908 ft | 4 kts | 130° |
| 2026-05-07 12:35 | 1.39620 | -77.29108 | 5907 ft | 2 kts | 194° |
| 2026-05-07 12:35 | 1.39622 | -77.29107 | 5907 ft | 1 kts | 195° |
| 2026-05-07 12:40 | 1.39608 | -77.29111 | 5908 ft | 7 kts | 195° |
| 2026-05-07 12:40 | 1.39553 | -77.29125 | 5911 ft | 9 kts | 194° |
| 2026-05-07 12:40 | 1.39489 | -77.29142 | 5914 ft | 9 kts | 194° |
| 2026-05-07 12:40 | 1.39427 | -77.29158 | 5917 ft | 9 kts | 194° |
| 2026-05-07 12:41 | 1.39370 | -77.29173 | 5920 ft | 8 kts | 194° |
| 2026-05-07 12:41 | 1.39331 | -77.29183 | 5922 ft | 3 kts | 194° |
| 2026-05-07 12:41 | 1.39311 | -77.29188 | 5924 ft | 3 kts | 194° |
| 2026-05-07 12:41 | 1.39289 | -77.29194 | 5924 ft | 4 kts | 194° |
| 2026-05-07 12:42 | 1.39252 | -77.29203 | 5925 ft | 8 kts | 195° |
| 2026-05-07 12:42 | 1.39175 | -77.29227 | 5929 ft | 15 kts | 197° |
| 2026-05-07 12:42 | 1.39054 | -77.29258 | 5935 ft | 19 kts | 194° |
| 2026-05-07 12:42 | 1.38925 | -77.29293 | 5939 ft | 18 kts | 195° |
| 2026-05-07 12:43 | 1.38809 | -77.29324 | 5951 ft | 17 kts | 195° |
| 2026-05-07 12:43 | 1.38699 | -77.29345 | 5957 ft | 15 kts | 174° |
| 2026-05-07 12:43 | 1.38667 | -77.29358 | 5962 ft | 3 kts | 289° |
| 2026-05-07 12:43 | 1.38711 | -77.29350 | 5956 ft | 8 kts | 21° |
| 2026-05-07 12:44 | 1.38720 | -77.29348 | 5954 ft | 0 kts | 13° |
| 2026-05-07 12:44 | 1.38800 | -77.29328 | 5942 ft | 46 kts | 14° |
| 2026-05-07 12:45 | 1.39394 | -77.29169 | 5919 ft | 127 kts | 15° |
| 2026-05-07 12:45 | 1.40445 | -77.28890 | 5948 ft | 182 kts | 17° |
| 2026-05-07 12:45 | 1.41684 | -77.28562 | 6691 ft | 185 kts | 16° |
| 2026-05-07 12:45 | 1.42929 | -77.28228 | 7607 ft | 185 kts | 15° |
| 2026-05-07 12:46 | 1.44160 | -77.27901 | 8172 ft | 183 kts | 17° |
| 2026-05-07 12:46 | 1.45399 | -77.27616 | 8702 ft | 183 kts | 9° |
| 2026-05-07 12:46 | 1.46687 | -77.27594 | 9174 ft | 190 kts | 355° |
| 2026-05-07 12:46 | 1.48054 | -77.27875 | 9391 ft | 212 kts | 348° |
| 2026-05-07 12:47 | 1.49562 | -77.28243 | 9534 ft | 235 kts | 349° |
| 2026-05-07 12:47 | 1.51233 | -77.28644 | 9709 ft | 259 kts | 349° |
| 2026-05-07 12:47 | 1.53068 | -77.29080 | 9925 ft | 283 kts | 349° |
| 2026-05-07 12:47 | 1.55065 | -77.29553 | 10199 ft | 307 kts | 349° |
| 2026-05-07 12:48 | 1.57227 | -77.30068 | 10481 ft | 331 kts | 348° |
| 2026-05-07 12:48 | 1.59546 | -77.30624 | 10719 ft | 355 kts | 348° |
| 2026-05-07 12:48 | 1.62004 | -77.31219 | 11116 ft | 369 kts | 348° |
| 2026-05-07 12:48 | 1.64491 | -77.31823 | 11711 ft | 374 kts | 348° |
| 2026-05-07 12:49 | 1.67023 | -77.32439 | 12408 ft | 376 kts | 348° |
| 2026-05-07 12:49 | 1.69572 | -77.33056 | 13129 ft | 378 kts | 349° |
| 2026-05-07 12:49 | 1.72166 | -77.33488 | 13831 ft | 379 kts | 357° |
| 2026-05-07 12:49 | 1.74801 | -77.33560 | 14434 ft | 379 kts | 5° |
| 2026-05-07 12:50 | 1.77422 | -77.33244 | 15033 ft | 380 kts | 13° |
| 2026-05-07 12:50 | 1.79979 | -77.32548 | 15626 ft | 380 kts | 22° |
| 2026-05-07 12:50 | 1.82410 | -77.31491 | 16217 ft | 381 kts | 30° |
| 2026-05-07 12:50 | 1.84673 | -77.30102 | 16802 ft | 382 kts | 38° |
| 2026-05-07 12:51 | 1.86789 | -77.28488 | 17363 ft | 384 kts | 39° |
| 2026-05-07 12:51 | 1.88922 | -77.26858 | 17910 ft | 388 kts | 39° |
| 2026-05-07 12:51 | 1.91038 | -77.25168 | 18419 ft | 390 kts | 44° |
| 2026-05-07 12:51 | 1.92868 | -77.23155 | 18874 ft | 392 kts | 54° |
| 2026-05-07 12:52 | 1.94436 | -77.20921 | 19361 ft | 393 kts | 56° |
| 2026-05-07 12:52 | 1.95999 | -77.18671 | 19841 ft | 395 kts | 56° |
| 2026-05-07 12:52 | 1.97569 | -77.16411 | 20298 ft | 397 kts | 56° |
| 2026-05-07 12:52 | 1.99150 | -77.14136 | 20761 ft | 399 kts | 56° |
| 2026-05-07 12:53 | 2.00716 | -77.11880 | 21184 ft | 402 kts | 56° |
| 2026-05-07 12:53 | 2.02313 | -77.09576 | 21614 ft | 404 kts | 56° |
| 2026-05-07 12:53 | 2.03925 | -77.07255 | 22044 ft | 407 kts | 56° |
| 2026-05-07 12:53 | 2.05551 | -77.04920 | 22459 ft | 410 kts | 56° |
| 2026-05-07 12:54 | 2.07187 | -77.02575 | 22876 ft | 412 kts | 56° |
| 2026-05-07 12:54 | 2.08831 | -77.00216 | 23279 ft | 415 kts | 56° |
| 2026-05-07 12:54 | 2.10486 | -76.97843 | 23657 ft | 418 kts | 56° |
| 2026-05-07 12:54 | 2.12153 | -76.95450 | 23987 ft | 420 kts | 56° |
| 2026-05-07 12:55 | 2.13824 | -76.93045 | 24336 ft | 422 kts | 56° |
| 2026-05-07 12:55 | 2.15503 | -76.90626 | 24664 ft | 425 kts | 56° |
| 2026-05-07 12:55 | 2.17170 | -76.88225 | 24983 ft | 427 kts | 56° |
| 2026-05-07 12:55 | 2.18871 | -76.85782 | 25292 ft | 429 kts | 56° |
| 2026-05-07 12:56 | 2.20572 | -76.83336 | 25706 ft | 428 kts | 56° |
| 2026-05-07 12:56 | 2.22274 | -76.80881 | 26115 ft | 429 kts | 56° |
| 2026-05-07 12:56 | 2.23978 | -76.78422 | 26386 ft | 433 kts | 56° |
| 2026-05-07 12:56 | 2.25709 | -76.75928 | 26598 ft | 438 kts | 56° |
| 2026-05-07 12:57 | 2.27451 | -76.73420 | 26895 ft | 441 kts | 56° |
| 2026-05-07 12:57 | 2.29204 | -76.70896 | 27205 ft | 443 kts | 56° |
| 2026-05-07 12:57 | 2.30967 | -76.68358 | 27516 ft | 445 kts | 56° |
| 2026-05-07 12:57 | 2.32739 | -76.65801 | 27817 ft | 448 kts | 56° |
| 2026-05-07 12:58 | 2.34496 | -76.63267 | 28115 ft | 450 kts | 56° |
| 2026-05-07 12:58 | 2.36338 | -76.60729 | 28400 ft | 452 kts | 51° |
| 2026-05-07 12:58 | 2.38514 | -76.58432 | 28671 ft | 455 kts | 44° |
| 2026-05-07 12:58 | 2.40824 | -76.56249 | 28934 ft | 457 kts | 44° |
| 2026-05-07 12:59 | 2.43139 | -76.54062 | 29196 ft | 460 kts | 44° |
| 2026-05-07 12:59 | 2.45467 | -76.51857 | 29453 ft | 462 kts | 44° |
| 2026-05-07 12:59 | 2.47797 | -76.49638 | 29700 ft | 463 kts | 45° |
| 2026-05-07 12:59 | 2.50130 | -76.47412 | 30031 ft | 463 kts | 45° |
| 2026-05-07 13:00 | 2.52458 | -76.45190 | 30313 ft | 464 kts | 45° |
| 2026-05-07 13:00 | 2.54800 | -76.42960 | 30519 ft | 465 kts | 45° |
| 2026-05-07 13:00 | 2.57143 | -76.40733 | 30825 ft | 464 kts | 45° |
| 2026-05-07 13:00 | 2.59483 | -76.38509 | 31079 ft | 464 kts | 45° |
| 2026-05-07 13:01 | 2.61826 | -76.36283 | 31302 ft | 466 kts | 45° |
| 2026-05-07 13:01 | 2.64181 | -76.34047 | 31543 ft | 467 kts | 45° |
| 2026-05-07 13:01 | 2.66542 | -76.31804 | 31790 ft | 468 kts | 45° |
| 2026-05-07 13:01 | 2.68901 | -76.29561 | 32035 ft | 469 kts | 44° |
| 2026-05-07 13:02 | 2.73607 | -76.25084 | 32130 ft | 464 kts | 44° |
| 2026-05-07 13:02 | 2.78246 | -76.20667 | 32161 ft | 463 kts | 44° |
| 2026-05-07 13:03 | 2.82906 | -76.16232 | 32150 ft | 463 kts | 44° |
| 2026-05-07 13:03 | 2.87576 | -76.11802 | 32149 ft | 463 kts | 44° |
| 2026-05-07 13:04 | 2.92246 | -76.07376 | 32153 ft | 463 kts | 44° |
| 2026-05-07 13:04 | 2.96915 | -76.02937 | 32160 ft | 462 kts | 44° |
| 2026-05-07 13:05 | 3.01577 | -75.98505 | 32158 ft | 463 kts | 44° |
| 2026-05-07 13:05 | 3.06248 | -75.94063 | 32154 ft | 463 kts | 44° |
| 2026-05-07 13:06 | 3.10922 | -75.89620 | 32161 ft | 463 kts | 44° |
| 2026-05-07 13:06 | 3.15598 | -75.85179 | 32167 ft | 463 kts | 44° |
| 2026-05-07 13:07 | 3.20272 | -75.80738 | 32166 ft | 464 kts | 44° |
| 2026-05-07 13:07 | 3.24946 | -75.76294 | 32155 ft | 463 kts | 44° |
| 2026-05-07 13:08 | 3.29619 | -75.71858 | 32159 ft | 463 kts | 44° |
| 2026-05-07 13:08 | 3.34278 | -75.67425 | 32157 ft | 462 kts | 44° |
| 2026-05-07 13:09 | 3.38946 | -75.62989 | 32117 ft | 462 kts | 44° |
| 2026-05-07 13:09 | 3.43616 | -75.58555 | 32127 ft | 462 kts | 44° |
| 2026-05-07 13:10 | 3.48240 | -75.54151 | 32125 ft | 462 kts | 44° |
| 2026-05-07 13:10 | 3.52900 | -75.49716 | 32097 ft | 462 kts | 44° |
| 2026-05-07 13:11 | 3.57557 | -75.45287 | 32094 ft | 462 kts | 44° |
| 2026-05-07 13:11 | 3.62209 | -75.40856 | 32095 ft | 461 kts | 44° |
| 2026-05-07 13:12 | 3.66861 | -75.36430 | 32101 ft | 461 kts | 44° |
| 2026-05-07 13:12 | 3.71512 | -75.32011 | 32092 ft | 461 kts | 44° |
| 2026-05-07 13:13 | 3.76138 | -75.27605 | 32088 ft | 461 kts | 44° |
| 2026-05-07 13:13 | 3.80789 | -75.23176 | 32082 ft | 461 kts | 44° |
| 2026-05-07 13:14 | 3.85451 | -75.18742 | 32098 ft | 462 kts | 44° |
| 2026-05-07 13:14 | 3.90104 | -75.14311 | 32098 ft | 462 kts | 44° |
| 2026-05-07 13:15 | 3.94762 | -75.09870 | 32099 ft | 462 kts | 44° |
| 2026-05-07 13:15 | 3.99387 | -75.05463 | 32119 ft | 462 kts | 44° |
| 2026-05-07 13:16 | 4.04045 | -75.01029 | 32125 ft | 462 kts | 44° |
| 2026-05-07 13:16 | 4.08732 | -74.96562 | 31733 ft | 470 kts | 44° |
| 2026-05-07 13:17 | 4.11117 | -74.94286 | 30616 ft | 478 kts | 44° |
| 2026-05-07 13:17 | 4.13543 | -74.91973 | 29344 ft | 485 kts | 44° |
| 2026-05-07 13:17 | 4.16074 | -74.89707 | 28030 ft | 491 kts | 38° |
| 2026-05-07 13:17 | 4.18958 | -74.87852 | 26776 ft | 496 kts | 27° |
| 2026-05-07 13:18 | 4.22131 | -74.86532 | 25741 ft | 492 kts | 18° |
| 2026-05-07 13:18 | 4.25448 | -74.85747 | 24811 ft | 490 kts | 9° |
| 2026-05-07 13:18 | 4.28815 | -74.85290 | 23936 ft | 486 kts | 8° |
| 2026-05-07 13:18 | 4.32147 | -74.84848 | 23203 ft | 479 kts | 8° |
| 2026-05-07 13:19 | 4.35383 | -74.84428 | 23034 ft | 459 kts | 8° |
| 2026-05-07 13:19 | 4.38480 | -74.84032 | 22918 ft | 440 kts | 8° |
| 2026-05-07 13:19 | 4.41454 | -74.83649 | 22808 ft | 423 kts | 8° |
| 2026-05-07 13:19 | 4.44316 | -74.83277 | 22702 ft | 407 kts | 8° |
| 2026-05-07 13:20 | 4.47072 | -74.82914 | 22485 ft | 395 kts | 8° |
| 2026-05-07 13:20 | 4.49773 | -74.82556 | 22087 ft | 389 kts | 8° |
| 2026-05-07 13:20 | 4.52442 | -74.82202 | 21646 ft | 385 kts | 9° |
| 2026-05-07 13:20 | 4.55089 | -74.81851 | 21202 ft | 382 kts | 9° |
| 2026-05-07 13:21 | 4.57709 | -74.81503 | 20786 ft | 379 kts | 9° |
| 2026-05-07 13:21 | 4.60315 | -74.81156 | 20365 ft | 376 kts | 9° |
| 2026-05-07 13:21 | 4.62900 | -74.80814 | 19949 ft | 373 kts | 9° |
| 2026-05-07 13:21 | 4.65461 | -74.80475 | 19527 ft | 370 kts | 9° |
| 2026-05-07 13:22 | 4.68001 | -74.80138 | 19112 ft | 367 kts | 10° |
| 2026-05-07 13:22 | 4.70462 | -74.79520 | 18440 ft | 368 kts | 25° |
| 2026-05-07 13:22 | 4.72606 | -74.78152 | 17424 ft | 375 kts | 44° |
| 2026-05-07 13:22 | 4.74221 | -74.76084 | 16414 ft | 382 kts | 63° |
| 2026-05-07 13:23 | 4.75435 | -74.73673 | 15331 ft | 393 kts | 65° |
| 2026-05-07 13:23 | 4.76651 | -74.71200 | 14524 ft | 395 kts | 65° |
| 2026-05-07 13:23 | 4.77861 | -74.68735 | 13881 ft | 393 kts | 65° |
| 2026-05-07 13:23 | 4.79063 | -74.66286 | 13147 ft | 390 kts | 65° |
| 2026-05-07 13:24 | 4.79854 | -74.64675 | 12927 ft | 389 kts | 65° |
| 2026-05-07 13:24 | 4.81052 | -74.62240 | 12775 ft | 389 kts | 65° |
| 2026-05-07 13:24 | 4.82255 | -74.59800 | 12804 ft | 391 kts | 65° |
| 2026-05-07 13:24 | 4.83466 | -74.57355 | 12807 ft | 391 kts | 65° |
| 2026-05-07 13:25 | 4.84679 | -74.54912 | 12806 ft | 391 kts | 65° |
| 2026-05-07 13:25 | 4.85867 | -74.52524 | 12801 ft | 372 kts | 65° |
| 2026-05-07 13:25 | 4.86991 | -74.50267 | 12799 ft | 351 kts | 65° |
| 2026-05-07 13:25 | 4.88047 | -74.48140 | 12859 ft | 331 kts | 66° |
| 2026-05-07 13:26 | 4.89042 | -74.46126 | 12855 ft | 314 kts | 66° |
| 2026-05-07 13:26 | 4.89910 | -74.44181 | 12857 ft | 296 kts | 77° |
| 2026-05-07 13:26 | 4.90065 | -74.42207 | 12869 ft | 277 kts | 99° |
| 2026-05-07 13:26 | 4.89469 | -74.40431 | 12878 ft | 264 kts | 120° |
| 2026-05-07 13:27 | 4.88280 | -74.39105 | 12891 ft | 251 kts | 142° |
| 2026-05-07 13:27 | 4.86959 | -74.38049 | 12898 ft | 235 kts | 128° |
| 2026-05-07 13:27 | 4.86011 | -74.36767 | 12884 ft | 223 kts | 123° |
| 2026-05-07 13:27 | 4.85130 | -74.35538 | 12748 ft | 212 kts | 124° |
| 2026-05-07 13:28 | 4.84258 | -74.34371 | 12490 ft | 206 kts | 125° |
| 2026-05-07 13:28 | 4.83420 | -74.33262 | 12233 ft | 199 kts | 125° |
| 2026-05-07 13:28 | 4.82596 | -74.32173 | 12000 ft | 194 kts | 126° |
| 2026-05-07 13:28 | 4.81783 | -74.31098 | 11756 ft | 191 kts | 126° |
| 2026-05-07 13:29 | 4.80988 | -74.30047 | 11525 ft | 188 kts | 126° |
| 2026-05-07 13:29 | 4.80204 | -74.29011 | 11295 ft | 185 kts | 126° |
| 2026-05-07 13:29 | 4.79436 | -74.27996 | 11087 ft | 178 kts | 126° |
| 2026-05-07 13:29 | 4.78718 | -74.27048 | 10881 ft | 165 kts | 126° |
| 2026-05-07 13:30 | 4.78043 | -74.26156 | 10676 ft | 158 kts | 126° |
| 2026-05-07 13:30 | 4.77388 | -74.25291 | 10489 ft | 154 kts | 126° |
| 2026-05-07 13:30 | 4.76744 | -74.24440 | 10298 ft | 153 kts | 126° |
| 2026-05-07 13:30 | 4.76097 | -74.23585 | 10100 ft | 154 kts | 127° |
| 2026-05-07 13:31 | 4.75450 | -74.22730 | 9900 ft | 154 kts | 127° |
| 2026-05-07 13:31 | 4.74799 | -74.21871 | 9693 ft | 155 kts | 127° |
| 2026-05-07 13:31 | 4.74149 | -74.21011 | 9466 ft | 154 kts | 127° |
| 2026-05-07 13:31 | 4.73502 | -74.20157 | 9231 ft | 154 kts | 126° |
| 2026-05-07 13:32 | 4.72861 | -74.19311 | 8986 ft | 155 kts | 125° |
| 2026-05-07 13:32 | 4.72204 | -74.18455 | 8767 ft | 154 kts | 124° |
| 2026-05-07 13:32 | 4.71561 | -74.17592 | 8590 ft | 155 kts | 123° |
| 2026-05-07 13:32 | 4.70914 | -74.16730 | 8392 ft | 154 kts | 125° |
| 2026-05-07 13:33 | 4.70338 | -74.15967 | 8372 ft | 115 kts | 127° |
| 2026-05-07 13:33 | 4.69956 | -74.15467 | 8372 ft | 66 kts | 127° |
| 2026-05-07 13:33 | 4.69771 | -74.15214 | 8374 ft | 28 kts | 118° |
| 2026-05-07 13:33 | 4.69726 | -74.15069 | 8373 ft | 13 kts | 99° |
| 2026-05-07 13:34 | 4.69711 | -74.14975 | 8373 ft | 14 kts | 99° |
| 2026-05-07 13:34 | 4.69781 | -74.14799 | 8371 ft | 15 kts | 37° |
| 2026-05-07 13:34 | 4.69854 | -74.14726 | 8373 ft | 14 kts | 90° |
| 2026-05-07 13:35 | 4.69796 | -74.14640 | 8373 ft | 15 kts | 127° |
| 2026-05-07 13:35 | 4.69780 | -74.14585 | 8373 ft | 7 kts | 52° |
| 2026-05-07 13:35 | 4.69808 | -74.14563 | 8373 ft | 0 kts | 37° |